createdAt,value
2019-05-23T00:00:39.369Z,101526.49
2019-05-23T00:05:46.660Z,101519.25
2019-05-23T00:10:55.251Z,101516.84
2019-05-23T00:15:57.960Z,101521.16
2019-05-23T00:21:00.787Z,101523.59
2019-05-23T00:26:04.072Z,101521.86
2019-05-23T00:31:27.554Z,101529.22
2019-05-23T00:36:32.149Z,101528.52
2019-05-23T00:41:34.968Z,101522.29
2019-05-23T00:46:38.829Z,101516.44
2019-05-23T00:51:42.059Z,101510.11
2019-05-23T00:56:45.079Z,101521.14
2019-05-23T01:01:48.675Z,101515.07
2019-05-23T01:06:51.576Z,101521.23
2019-05-23T01:11:54.872Z,101528.37
2019-05-23T01:16:58.432Z,101522.73
2019-05-23T01:22:04.627Z,101519.75
2019-05-23T01:27:07.911Z,101520.53
2019-05-23T01:32:26.993Z,101517.34
2019-05-23T01:37:30.224Z,101515.56
2019-05-23T01:42:33.340Z,101511.20
2019-05-23T01:47:36.307Z,101518.20
2019-05-23T01:52:41.277Z,101523.27
2019-05-23T01:57:44.355Z,101520.25
2019-05-23T02:02:47.901Z,101524.36
2019-05-23T02:07:50.609Z,101527.33
2019-05-23T02:12:53.313Z,101525.13
2019-05-23T02:17:57.289Z,101523.58
2019-05-23T02:23:00.618Z,101524.41
2019-05-23T02:28:04.109Z,101527.03
2019-05-23T02:33:07.039Z,101517.19
2019-05-23T02:38:27.991Z,101519.06
2019-05-23T02:43:33.930Z,101513.30
2019-05-23T02:48:41.050Z,101503.45
2019-05-23T02:53:46.882Z,101503.38
2019-05-23T02:59:07.201Z,101503.73
2019-05-23T03:04:16.064Z,101505.84
2019-05-23T03:09:23.166Z,101504.50
2019-05-23T03:14:27.225Z,101503.66
2019-05-23T03:19:44.212Z,101499.81
2019-05-23T03:24:48.856Z,101499.45
2019-05-23T03:29:52.406Z,101486.31
2019-05-23T03:35:02.035Z,101491.55
2019-05-23T03:40:06.684Z,101490.61
2019-05-23T03:45:14.014Z,101491.48
2019-05-23T03:50:18.542Z,101495.84
2019-05-23T03:55:23.135Z,101503.66
2019-05-23T04:00:30.735Z,101503.86
2019-05-23T04:05:34.304Z,101490.98
2019-05-23T04:10:37.432Z,101495.51
2019-05-23T04:15:40.977Z,101498.44
2019-05-23T04:20:43.987Z,101492.45
2019-05-23T04:25:47.120Z,101498.05
2019-05-23T04:30:52.531Z,101503.23
2019-05-23T04:35:55.647Z,101498.34
2019-05-23T04:40:58.357Z,101502.48
2019-05-23T04:46:01.378Z,101501.06
2019-05-23T04:51:05.425Z,101491.95
2019-05-23T04:56:08.738Z,101497.81
2019-05-23T05:01:12.732Z,101493.75
2019-05-23T05:06:16.196Z,101502.84
2019-05-23T05:11:20.710Z,101493.41
2019-05-23T05:16:25.341Z,101497.80
2019-05-23T05:21:29.675Z,101502.22
2019-05-23T05:26:33.996Z,101501.09
2019-05-23T05:31:38.155Z,101508.32
2019-05-23T05:36:42.102Z,101504.74
2019-05-23T05:41:46.429Z,101504.58
2019-05-23T05:46:51.297Z,101506.78
2019-05-23T05:51:55.646Z,101514.44
2019-05-23T05:57:00.159Z,101518.84
2019-05-23T06:02:07.678Z,101517.07
2019-05-23T06:07:23.911Z,101520.21
2019-05-23T06:12:26.799Z,101517.22
2019-05-23T06:17:30.585Z,101520.63
2019-05-23T06:22:33.644Z,101518.84
2019-05-23T06:27:37.785Z,101524.14
2019-05-23T06:32:40.936Z,101521.77
2019-05-23T06:37:43.900Z,101533.67
2019-05-23T06:42:50.295Z,101529.27
2019-05-23T06:47:51.442Z,101527.66
2019-05-23T06:52:55.011Z,101523.73
2019-05-23T06:57:57.888Z,101516.18
2019-05-23T07:03:01.127Z,101517.05
2019-05-23T07:08:04.399Z,101520.60
2019-05-23T07:13:07.274Z,101520.02
2019-05-23T07:18:09.974Z,101522.36
2019-05-23T07:23:14.058Z,101513.98
2019-05-23T07:28:16.961Z,101528.19
2019-05-23T07:33:19.722Z,101529.06
2019-05-23T07:38:22.448Z,101530.55
2019-05-23T07:43:25.881Z,101524.55
2019-05-23T07:48:30.771Z,101526.33
2019-05-23T07:53:55.967Z,101522.59
2019-05-23T07:58:59.113Z,101517.59
2019-05-23T08:04:19.598Z,101521.47
2019-05-23T08:09:09.013Z,101522.55
2019-05-23T08:14:12.621Z,101512.22
2019-05-23T08:19:19.282Z,101509.86
2019-05-23T08:24:20.239Z,101510.72
2019-05-23T08:29:26.067Z,101520.23
2019-05-23T08:34:40.599Z,101519.74
2019-05-23T08:39:33.055Z,101519.44
2019-05-23T08:44:36.012Z,101520.64
2019-05-23T08:49:38.739Z,101521.37
2019-05-23T08:54:42.684Z,101515.33
2019-05-23T08:59:45.709Z,101513.06
2019-05-23T09:05:03.746Z,101512.00
2019-05-23T09:09:54.338Z,101508.95
2019-05-23T09:14:58.971Z,101503.66
2019-05-23T09:20:02.535Z,101501.56
2019-05-23T09:25:07.840Z,101500.44
2019-05-23T09:30:16.512Z,101497.47
2019-05-23T09:35:24.869Z,101493.64
2019-05-23T09:40:29.474Z,101495.05
2019-05-23T09:45:34.023Z,101482.42
2019-05-23T09:50:39.622Z,101486.19
2019-05-23T09:55:44.994Z,101479.73
2019-05-23T10:00:53.579Z,101470.20
2019-05-23T10:05:57.581Z,101473.33
2019-05-23T10:11:01.496Z,101467.15
2019-05-23T10:16:09.610Z,101464.63
2019-05-23T10:21:14.075Z,101466.75
2019-05-23T10:26:19.464Z,101456.88
2019-05-23T10:31:22.222Z,101455.22
2019-05-23T10:36:24.993Z,101449.22
2019-05-23T10:41:28.021Z,101446.86
2019-05-23T10:46:31.169Z,101445.95
2019-05-23T10:51:33.900Z,101434.23
2019-05-23T10:56:36.851Z,101427.28
2019-05-23T11:01:39.689Z,101423.64
2019-05-23T11:06:42.778Z,101415.84
2019-05-23T11:11:45.545Z,101416.37
2019-05-23T11:16:48.923Z,101410.62
2019-05-23T11:21:54.119Z,101406.08
2019-05-23T11:26:56.979Z,101409.25
2019-05-23T11:32:00.740Z,101401.67
2019-05-23T11:37:03.529Z,101394.87
2019-05-23T11:42:06.248Z,101391.14
2019-05-23T11:47:10.244Z,101395.80
2019-05-23T11:52:12.989Z,101388.47
2019-05-23T11:57:16.162Z,101378.58
2019-05-23T12:02:41.307Z,101375.77
2019-05-23T12:07:44.624Z,101379.59
2019-05-23T12:12:48.451Z,101368.95
2019-05-23T12:17:51.438Z,101361.51
2019-05-23T12:22:54.318Z,101353.12
2019-05-23T12:27:57.238Z,101345.96
2019-05-23T12:33:00.107Z,101335.90
2019-05-23T12:38:03.064Z,101336.01
2019-05-23T12:43:05.945Z,101338.09
2019-05-23T12:48:16.002Z,101335.33
2019-05-23T12:53:18.930Z,101330.34
2019-05-23T12:58:23.162Z,101330.32
2019-05-23T13:03:26.293Z,101323.16
2019-05-23T13:08:29.212Z,101320.33
2019-05-23T13:13:31.939Z,101325.13
2019-05-23T13:18:34.754Z,101312.03
2019-05-23T13:23:37.792Z,101307.01
2019-05-23T13:28:40.537Z,101300.17
2019-05-23T13:33:43.452Z,101298.55
2019-05-23T13:38:46.390Z,101297.42
2019-05-23T13:43:49.220Z,101294.70
2019-05-23T13:48:51.952Z,101290.53
2019-05-23T13:53:54.679Z,101287.31
2019-05-23T13:58:57.593Z,101286.50
2019-05-23T14:04:00.572Z,101282.05
2019-05-23T14:09:05.406Z,101278.11
2019-05-23T14:14:08.673Z,101267.52
2019-05-23T14:19:12.000Z,101267.11
2019-05-23T14:24:14.900Z,101258.34
2019-05-23T14:29:17.810Z,101263.44
2019-05-23T14:34:21.097Z,101257.75
2019-05-23T14:39:34.803Z,101255.90
2019-05-23T14:44:37.826Z,101249.67
2019-05-23T14:49:45.415Z,101247.92
2019-05-23T14:54:53.014Z,101250.88
2019-05-23T14:59:56.032Z,101249.16
2019-05-23T15:04:59.076Z,101251.84
2019-05-23T15:10:02.002Z,101247.33
2019-05-23T15:15:05.190Z,101247.29
2019-05-23T15:20:08.103Z,101245.41
2019-05-23T15:25:11.010Z,101240.10
2019-05-23T15:30:14.115Z,101234.97
2019-05-23T15:35:17.038Z,101234.26
2019-05-23T15:40:20.140Z,101229.52
2019-05-23T15:45:22.932Z,101226.45
2019-05-23T15:50:30.455Z,101225.05
2019-05-23T15:55:42.146Z,101220.98
2019-05-23T16:00:52.943Z,101211.12
2019-05-23T16:05:55.941Z,101208.03
2019-05-23T16:10:59.100Z,101205.57
2019-05-23T16:16:02.119Z,101203.99
2019-05-23T16:21:05.114Z,101207.27
2019-05-23T16:26:11.449Z,101197.23
2019-05-23T16:31:13.034Z,101193.77
2019-05-23T16:36:16.009Z,101191.23
2019-05-23T16:41:18.824Z,101184.60
2019-05-23T16:46:21.557Z,101188.34
2019-05-23T16:51:24.267Z,101182.42
2019-05-23T16:56:35.703Z,101186.46
2019-05-23T17:02:05.592Z,101178.48
2019-05-23T17:07:14.055Z,101178.26
2019-05-23T17:12:36.489Z,101170.34
2019-05-23T17:18:01.419Z,101164.45
2019-05-23T17:23:11.171Z,101173.53
2019-05-23T17:28:23.597Z,101170.05
2019-05-23T17:33:27.713Z,101165.17
2019-05-23T17:38:30.533Z,101161.43
2019-05-23T17:43:33.436Z,101157.12
2019-05-23T17:48:36.163Z,101157.10
2019-05-23T17:53:39.127Z,101151.55
2019-05-23T17:58:41.827Z,101146.67
2019-05-23T18:03:44.568Z,101142.52
2019-05-23T18:08:47.668Z,101143.86
2019-05-23T18:13:50.697Z,101139.55
2019-05-23T18:18:53.479Z,101128.41
2019-05-23T18:23:56.712Z,101130.37
2019-05-23T18:28:59.531Z,101123.89
2019-05-23T18:34:04.228Z,101122.18
2019-05-23T18:39:09.565Z,101127.49
2019-05-23T18:44:12.802Z,101126.64
2019-05-23T18:49:17.519Z,101122.11
2019-05-23T18:54:20.361Z,101122.75
2019-05-23T18:59:23.267Z,101128.27
2019-05-23T19:04:26.522Z,101122.98
2019-05-23T19:09:29.306Z,101121.54
2019-05-23T19:14:32.020Z,101118.70
2019-05-23T19:19:34.899Z,101122.60
2019-05-23T19:24:37.657Z,101125.91
2019-05-23T19:29:40.666Z,101122.21
2019-05-23T19:34:43.367Z,101128.13
2019-05-23T19:39:46.075Z,101119.55
2019-05-23T19:44:48.784Z,101121.50
2019-05-23T19:49:51.585Z,101123.19
2019-05-23T19:54:54.357Z,101123.26
2019-05-23T19:59:57.078Z,101119.80
2019-05-23T20:05:15.104Z,101131.23
2019-05-23T20:10:19.642Z,101122.38
2019-05-23T20:15:22.665Z,101123.95
2019-05-23T20:20:26.269Z,101121.87
2019-05-23T20:25:29.286Z,101120.66
2019-05-23T20:31:01.808Z,101120.67
2019-05-23T20:36:11.965Z,101114.97
2019-05-23T20:41:13.071Z,101121.05
2019-05-23T20:46:16.742Z,101117.08
2019-05-23T20:51:20.693Z,101117.94
2019-05-23T20:56:23.496Z,101110.17
2019-05-23T21:01:30.258Z,101112.63
2019-05-23T21:06:33.307Z,101107.80
2019-05-23T21:11:36.179Z,101111.48
2019-05-23T21:16:38.926Z,101115.02
2019-05-23T21:21:41.932Z,101113.58
2019-05-23T21:26:44.704Z,101117.94
2019-05-23T21:31:47.565Z,101107.97
2019-05-23T21:36:50.275Z,101110.98
2019-05-23T21:41:53.411Z,101112.00
2019-05-23T21:46:56.160Z,101106.83
2019-05-23T21:51:59.010Z,101102.85
2019-05-23T21:57:03.321Z,101100.13
2019-05-23T22:02:17.962Z,101090.42
2019-05-23T22:07:21.466Z,101095.42
2019-05-23T22:12:24.333Z,101084.23
2019-05-23T22:17:27.498Z,101088.76
2019-05-23T22:22:30.200Z,101131.06
2019-05-23T22:27:33.644Z,101127.20
2019-05-23T22:32:36.561Z,101107.87
2019-05-23T22:37:39.506Z,101109.70
2019-05-23T22:42:42.219Z,101102.44
2019-05-23T22:47:44.980Z,101106.09
2019-05-23T22:52:47.927Z,101102.86
2019-05-23T22:57:50.697Z,101105.27
2019-05-23T23:02:53.517Z,101099.66
2019-05-23T23:07:56.263Z,101103.75
2019-05-23T23:12:58.948Z,101106.71
2019-05-23T23:18:01.800Z,101110.70
2019-05-23T23:23:04.517Z,101105.39
2019-05-23T23:28:07.248Z,101108.17
2019-05-23T23:33:10.041Z,101099.41
2019-05-23T23:38:12.855Z,101097.94
2019-05-23T23:43:15.565Z,101089.95
2019-05-23T23:48:36.403Z,101094.39
2019-05-23T23:53:56.963Z,101095.27
2019-05-23T23:58:59.302Z,101097.03
